Terminal Aerodrome Forecast
Issued by NWS Jacksonville, FL

Home | Current Version | Previous Version | Text Only | Print | Product List | Glossary On
Versions: 1 2 3 4 5 6 7 8 9 10 11 12 13 14 15 16 17 18 19 20 21 22 23 24 25 26 27 28 29 30 31 32
000
FTUS42 KJAX 032113 AAB
TAFJAX
TAF AMD
KJAX 032113Z 0321/0418 26006KT P6SM VCTS FEW009 BKN015CB
      TEMPO 0321/0323 VRB12G20KT 3SM -SHRA BR OVC012
     FM032300 25005KT P6SM VCSH OVC025
     FM040200 21009KT P6SM BKN025 OVC250
     FM040600 24007KT P6SM SCT025 BKN250
     FM041600 25007KT P6SM VCTS BKN035CB BKN250=

USA.gov is the U.S. government's official web portal to all federal, state and local government web resources and services.